Weather reports worldwide

Advertisment
Bousson, Italy (16058): temperature & dewpoint: 06.11.2019 17:00:00 - 12.11.2019 17:00:00 (CET)Bousson, Italy (16058): wind speed: 06.11.2019 17:00:00 - 12.11.2019 17:00:00 (CET)Bousson, Italy (16058): wind direction: 06.11.2019 17:00:00 - 12.11.2019 17:00:00 (CET)Bousson, Italy (16058): precipitation: 06.11.2019 17:00:00 - 12.11.2019 17:00:00 (CET)
Date & Time tt [°C] td [°C] ff [km/h] ff [kn] dd rr [mm]
12.11.2019 17:00:00 - - - - - -
12.11.2019 16:00:00 3,8 -11,9 2 1 W -
12.11.2019 15:00:00 6,4 -12,8 5 3 SW -
12.11.2019 14:00:00 6,1 -12,1 4 2 NNE -
12.11.2019 13:00:00 4,2 -7,4 5 3 E -
12.11.2019 12:00:00 1,8 -2,8 5 3 E -
12.11.2019 11:00:00 -1,4 -1,7 4 2 E -
12.11.2019 10:00:00 -3,9 -4,0 2 1 E -
12.11.2019 09:00:00 -4,7 -4,8 2 1 E -
12.11.2019 08:00:00 -4,8 -4,9 0 0 N -
12.11.2019 07:00:00 -4,4 -4,4 4 2 E -
12.11.2019 06:00:00 -4,5 -4,5 2 1 E -
12.11.2019 05:00:00 -4,3 -4,3 2 1 E -
12.11.2019 04:00:00 -4,1 -4,1 0 0 N -
12.11.2019 03:00:00 -3,9 -3,9 2 1 E -
12.11.2019 02:00:00 -3,3 -3,3 2 1 SE -
12.11.2019 01:00:00 -2,7 -2,7 2 1 NE -
12.11.2019 00:00:00 -2,7 -2,8 0 0 N -
11.11.2019 23:00:00 -2,4 -2,7 0 0 N -
11.11.2019 22:00:00 -1,7 -2,1 2 1 ENE -
11.11.2019 21:00:00 -0,8 -1,4 0 0 N -
11.11.2019 20:00:00 0,2 -0,2 2 1 E -
11.11.2019 19:00:00 0,3 -0,4 0 0 N -
11.11.2019 18:00:00 0,8 -0,2 2 1 W -
11.11.2019 17:00:00 1,6 -0,4 5 3 SW -
11.11.2019 16:00:00 2,3 -0,5 4 2 SW -
11.11.2019 15:00:00 - - - - - -
11.11.2019 14:00:00 2,5 -0,3 5 3 W -
11.11.2019 13:00:00 2,0 -1,0 9 5 WSW 0,0
11.11.2019 12:00:00 2,6 -0,4 2 1 E -
11.11.2019 11:00:00 2,6 -0,5 8 4 W -
11.11.2019 10:00:00 0,5 0,4 0 0 N -
11.11.2019 09:00:00 -0,9 -0,9 0 0 N -
11.11.2019 08:00:00 -1,9 -1,9 0 0 N -
11.11.2019 07:00:00 -2,3 -2,3 0 0 N -
11.11.2019 06:00:00 -3,1 -3,1 4 2 E -
11.11.2019 05:00:00 -3,7 -3,8 2 1 E -
11.11.2019 04:00:00 -3,5 -3,8 4 2 E -
11.11.2019 03:00:00 -2,9 -3,2 2 1 E -
11.11.2019 02:00:00 -2,3 -2,6 2 1 ENE -
11.11.2019 01:00:00 -1,6 -2,0 2 1 E -
11.11.2019 00:00:00 -0,8 -1,1 2 1 E -
10.11.2019 23:00:00 -0,2 -0,5 2 1 E -
10.11.2019 22:00:00 0,2 -0,2 0 0 N -
10.11.2019 21:00:00 0,5 -0,1 2 1 E -
10.11.2019 20:00:00 0,9 0,2 2 1 SSW -
10.11.2019 19:00:00 1,1 0,4 2 1 E -
10.11.2019 18:00:00 1,3 0,3 2 1 SW -
10.11.2019 17:00:00 1,7 0,5 5 3 SW -
10.11.2019 16:00:00 2,2 0,4 5 3 WSW -
10.11.2019 15:00:00 2,5 -0,1 8 4 WSW -
10.11.2019 14:00:00 2,7 -0,3 9 5 WSW -
10.11.2019 13:00:00 3,0 -1,2 8 4 W -
10.11.2019 12:00:00 3,1 -1,1 5 3 SW -
10.11.2019 11:00:00 1,5 -0,5 2 1 ESE -
10.11.2019 10:00:00 -1,0 -1,4 2 1 E -
10.11.2019 09:00:00 -2,9 -2,9 2 1 ENE -
10.11.2019 08:00:00 -4,6 -4,6 0 0 N -
10.11.2019 07:00:00 -5,3 -5,3 2 1 E -
10.11.2019 06:00:00 -5,4 -5,4 2 1 E -
10.11.2019 05:00:00 -6,2 -6,2 2 1 ENE -
10.11.2019 04:00:00 -6,6 -6,7 4 2 ENE -
10.11.2019 03:00:00 -6,5 -6,6 2 1 E -
10.11.2019 02:00:00 -6,2 -6,3 4 2 E -
10.11.2019 01:00:00 -6,2 -6,5 2 1 E -
10.11.2019 00:00:00 -5,8 -6,2 4 2 ENE -
09.11.2019 23:00:00 -5,4 -5,9 2 1 ENE -
09.11.2019 22:00:00 -4,5 -4,9 4 2 E -
09.11.2019 21:00:00 -4,5 -5,2 2 1 E -
09.11.2019 20:00:00 -4,1 -4,9 2 1 ENE -
09.11.2019 19:00:00 -3,4 -4,5 2 1 ENE -
09.11.2019 18:00:00 -2,5 -4,7 0 0 N -
09.11.2019 17:00:00 -0,9 -4,0 2 1 E -
09.11.2019 16:00:00 2,4 -5,6 4 2 SW -
09.11.2019 15:00:00 5,1 -4,6 4 2 SW -
09.11.2019 14:00:00 4,0 -1,9 4 2 E -
09.11.2019 13:00:00 2,6 -0,9 5 3 E -
09.11.2019 12:00:00 0,5 -0,7 4 2 E -
09.11.2019 11:00:00 -2,6 -2,6 4 2 E -
09.11.2019 10:00:00 -5,3 -5,3 2 1 E -
09.11.2019 09:00:00 -5,8 -5,8 2 1 ENE -
09.11.2019 08:00:00 -6,1 -6,2 2 1 ESE -
09.11.2019 07:00:00 -6,0 -6,0 2 1 ESE -
09.11.2019 06:00:00 -6,1 -6,1 2 1 E -
09.11.2019 05:00:00 -5,9 -5,9 4 2 ENE -
09.11.2019 04:00:00 -5,8 -5,8 2 1 E -
09.11.2019 03:00:00 -5,6 -5,6 2 1 E -
09.11.2019 02:00:00 -5,5 -5,5 4 2 E -
09.11.2019 01:00:00 -5,4 -5,4 2 1 E -
09.11.2019 00:00:00 -5,1 -5,1 2 1 E -
08.11.2019 23:00:00 -4,8 -4,9 0 0 N -
08.11.2019 22:00:00 -4,4 -4,7 0 0 N -
08.11.2019 21:00:00 -3,7 -4,0 0 0 N -
08.11.2019 20:00:00 -3,0 -3,4 0 0 N -
08.11.2019 19:00:00 -2,2 -2,8 0 0 N -
08.11.2019 18:00:00 -1,0 -1,7 2 1 ESE -
08.11.2019 17:00:00 0,3 -1,0 2 1 SE -
08.11.2019 16:00:00 3,1 0,3 2 1 SE -
08.11.2019 15:00:00 4,5 2,2 2 1 ENE -
08.11.2019 14:00:00 3,6 2,2 4 2 E -
08.11.2019 13:00:00 3,4 1,6 4 2 E -
08.11.2019 12:00:00 3,3 2,3 4 2 E -
08.11.2019 11:00:00 2,0 2,0 2 1 E -
08.11.2019 10:00:00 0,7 0,7 0 0 N -
08.11.2019 09:00:00 -0,3 -0,3 0 0 N -
08.11.2019 08:00:00 -0,5 -0,5 0 0 N -
08.11.2019 07:00:00 -0,4 -0,4 0 0 N -
08.11.2019 06:00:00 0,0 0,0 0 0 N -
08.11.2019 05:00:00 0,3 0,3 0 0 N -
08.11.2019 04:00:00 0,4 0,4 0 0 N -
08.11.2019 03:00:00 0,5 0,5 0 0 N -
08.11.2019 02:00:00 0,6 0,6 0 0 N -
08.11.2019 01:00:00 0,5 0,5 0 0 N -
08.11.2019 00:00:00 0,7 0,7 0 0 N -
07.11.2019 23:00:00 0,9 0,9 0 0 N -
07.11.2019 22:00:00 0,9 0,9 2 1 WSW -
07.11.2019 21:00:00 0,9 0,9 2 1 WSW -
07.11.2019 20:00:00 1,0 1,0 0 0 N -
07.11.2019 19:00:00 1,2 1,2 0 0 N -
07.11.2019 18:00:00 1,6 1,3 5 3 WSW -
07.11.2019 17:00:00 2,6 1,9 4 2 WSW -
07.11.2019 16:00:00 3,7 2,2 9 5 WSW -
07.11.2019 15:00:00 4,6 0,5 9 5 WSW -
07.11.2019 14:00:00 5,7 -0,2 4 2 W -
07.11.2019 13:00:00 5,3 -1,7 5 3 WSW -
07.11.2019 12:00:00 4,4 -0,3 2 1 WSW -
07.11.2019 11:00:00 3,1 -0,1 4 2 W -
07.11.2019 10:00:00 0,4 -1,1 2 1 WSW -
07.11.2019 09:00:00 -2,1 -2,5 2 1 E -
07.11.2019 08:00:00 -3,3 -3,7 4 2 E -
07.11.2019 07:00:00 -3,3 -3,7 2 1 E -
07.11.2019 06:00:00 -4,2 -4,6 2 1 E -
07.11.2019 05:00:00 -3,9 -4,5 2 1 E -
07.11.2019 04:00:00 -3,6 -4,3 2 1 E -
07.11.2019 03:00:00 -3,3 -4,0 2 1 ENE -
07.11.2019 02:00:00 -3,2 -3,9 2 1 E -
07.11.2019 01:00:00 -2,8 -3,5 2 1 E -
07.11.2019 00:00:00 -2,6 -3,3 2 1 ENE -
06.11.2019 23:00:00 -2,3 -3,0 2 1 E -
06.11.2019 22:00:00 -2,0 -2,8 2 1 E -
06.11.2019 21:00:00 -1,7 -2,8 0 0 N -
06.11.2019 20:00:00 -0,8 -2,1 2 1 E -
06.11.2019 19:00:00 0,0 -1,9 4 2 E -
06.11.2019 18:00:00 1,1 -2,0 2 1 E -
06.11.2019 17:00:00 3,4 -2,6 2 1 ESE -

tt = temperature
td = dewpoint
ff = wind speed
dd = wind direction
rr = precipitation

Next stations